Time;durP1;ratioP1;P1;durP2;ratioP2;P2;SDS_P1;SDS_P2;PMS_P1;PMS_P2;Temp;Humidity;BMP_temperature;BMP_pressure;BME280_temperature;BME280_humidity;BME280_pressure;Samples;Min_cycle;Max_cycle;Signal;HPM_P1;HPM_P2
2023/03/28 00:01:53;;;;;;;12.63;2.10;;;;;;;;;;5092747;28;20078;-69
2023/03/28 00:04:21;;;;;;;7.25;1.88;;;;;;;;;;5076231;28;20040;-69
2023/03/28 00:06:52;;;;;;;11.02;2.30;;;;;;;;;;5092928;28;20054;-69
2023/03/28 00:09:19;;;;;;;10.82;1.92;;;;;;;;;;5093083;28;20043;-69
2023/03/28 00:11:45;;;;;;;9.35;2.08;;;;;;;;;;5092881;28;20032;-68
2023/03/28 00:14:13;;;;;;;11.13;2.30;;;;;;;;;;5075799;28;20047;-69
2023/03/28 00:16:39;;;;;;;9.82;2.17;;;;;;;;;;5092807;28;20381;-69
2023/03/28 00:19:07;;;;;;;9.52;2.08;;;;;;;;;;5092735;28;20434;-68
2023/03/28 00:21:35;;;;;;;13.55;1.98;;;;;;;;;;5094977;28;20047;-68
2023/03/28 00:24:03;;;;;;;10.82;2.08;;;;;;;;;;5113419;28;20047;-68
2023/03/28 00:26:31;;;;;;;10.15;2.40;;;;;;;;;;5112572;28;20043;-68
2023/03/28 00:28:57;;;;;;;8.00;2.25;;;;;;;;;;5112911;28;20169;-68
2023/03/28 00:31:24;;;;;;;15.20;2.03;;;;;;;;;;5112904;28;20479;-68
2023/03/28 00:33:50;;;;;;;16.40;2.08;;;;;;;;;;5113026;28;20047;-69
2023/03/28 00:36:21;;;;;;;13.75;2.58;;;;;;;;;;5112665;28;20085;-69
2023/03/28 00:38:48;;;;;;;11.82;2.75;;;;;;;;;;5112842;28;20036;-68
2023/03/28 00:41:17;;;;;;;12.48;1.90;;;;;;;;;;5112705;28;20093;-69
2023/03/28 00:43:44;;;;;;;12.77;2.38;;;;;;;;;;5112642;28;20071;-69
2023/03/28 00:46:18;;;;;;;14.02;2.60;;;;;;;;;;5112722;28;20081;-69
2023/03/28 00:48:56;;;;;;;9.75;2.13;;;;;;;;;;5095194;28;21280;-69
2023/03/28 00:51:26;;;;;;;9.50;2.10;;;;;;;;;;5112352;28;20032;-69
2023/03/28 00:53:53;;;;;;;8.25;1.90;;;;;;;;;;5112546;28;20365;-69
2023/03/28 00:56:22;;;;;;;12.68;2.30;;;;;;;;;;5112384;28;20099;-69
2023/03/28 00:58:49;;;;;;;14.95;3.13;;;;;;;;;;5095506;28;20039;-69
2023/03/28 01:01:15;;;;;;;8.48;2.05;;;;;;;;;;5112641;28;20502;-69
2023/03/28 01:03:45;;;;;;;11.35;2.15;;;;;;;;;;5112307;28;20040;-69
2023/03/28 01:06:12;;;;;;;11.88;2.42;;;;;;;;;;5112288;28;20058;-69
2023/03/28 01:08:40;;;;;;;10.88;1.88;;;;;;;;;;5111975;28;20161;-68
2023/03/28 01:11:06;;;;;;;13.45;2.65;;;;;;;;;;5112087;28;20183;-73
2023/03/28 01:13:34;;;;;;;12.85;2.05;;;;;;;;;;5112110;28;20518;-73
2023/03/28 01:16:01;;;;;;;15.38;2.00;;;;;;;;;;5112120;28;20039;-73
2023/03/28 01:18:29;;;;;;;9.63;2.33;;;;;;;;;;5111810;28;20039;-73
2023/03/28 01:21:16;;;;;;;10.55;2.35;;;3.90;99.90;;;;;;5112137;28;20032;-73
2023/03/28 01:23:45;;;;;;;12.10;2.58;;;;;;;;;;5111999;28;20385;-68
2023/03/28 01:26:31;;;;;;;11.75;1.92;;;;;;;;;;5093812;28;20079;-69
2023/03/28 01:29:16;;;;;;;10.43;2.17;;;;;;;;;;5111605;28;20407;-69
2023/03/28 01:31:45;;;;;;;9.70;1.63;;;;;;;;;;5112014;28;20119;-69
2023/03/28 01:34:11;;;;;;;9.00;2.42;;;;;;;;;;5094931;28;20095;-69
2023/03/28 01:36:49;;;;;;;8.35;1.92;;;;;;;;;;5111832;28;20081;-68
2023/03/28 01:39:18;;;;;;;7.50;2.03;;;;;;;;;;5111314;28;20039;-68
2023/03/28 01:41:56;;;;;;;9.70;2.05;;;;;;;;;;5111372;28;20039;-69
2023/03/28 01:44:41;;;;;;;11.35;2.17;;;;;;;;;;5111715;28;20054;-68
2023/03/28 01:47:10;;;;;;;10.48;1.95;;;;;;;;;;5111446;28;20463;-69
2023/03/28 01:49:45;;;;;;;8.05;1.75;;;;;;;;;;5109648;28;20035;-68
2023/03/28 01:52:11;;;;;;;6.63;1.70;;;;;;;;;;5111449;28;20162;-69
2023/03/28 01:55:04;;;;;;;11.38;1.80;;;;;;;;;;5111397;28;20495;-68
2023/03/28 01:57:38;;;;;;;9.43;2.65;;;;;;;;;;5111376;28;20036;-68
2023/03/28 02:00:14;;;;;;;6.63;1.75;;;;;;;;;;5111165;28;20491;-68
2023/03/28 02:03:04;;;;;;;14.43;2.40;;;;;;;;;;5111621;28;20057;-68
2023/03/28 02:05:31;;;;;;;11.85;1.90;;;;;;;;;;5093702;28;20059;-68
2023/03/28 02:07:59;;;;;;;16.85;2.28;;;;;;;;;;5094336;28;20039;-68
2023/03/28 02:10:26;;;;;;;13.07;2.03;;;;;;;;;;5111229;28;20555;-68
2023/03/28 02:12:54;;;;;;;5.45;1.67;;;;;;;;;;5111124;28;20036;-68
2023/03/28 02:15:21;;;;;;;11.93;1.83;;;;;;;;;;5111288;28;20035;-68
2023/03/28 02:17:49;;;;;;;7.65;1.90;;;;;;;;;;5111510;28;20071;-68
2023/03/28 02:20:18;;;;;;;10.07;1.77;;;;;;;;;;5111199;28;20118;-69
2023/03/28 02:22:56;;;;;;;10.27;1.85;;;;;;;;;;5110860;28;20059;-68
2023/03/28 02:25:22;;;;;;;12.60;2.10;;;;;;;;;;5111000;28;20040;-68
2023/03/28 02:27:51;;;;;;;11.15;2.17;;;;;;;;;;5111363;28;20089;-68
2023/03/28 02:30:18;;;;;;;10.98;2.50;;;;;;;;;;5111428;28;20436;-68
2023/03/28 02:32:48;;;;;;;14.18;3.25;;;;;;;;;;5111187;28;20500;-69
2023/03/28 02:35:14;;;;;;;14.00;2.20;;;;;;;;;;5078106;28;20027;-68
2023/03/28 02:37:58;;;;;;;5.25;1.58;;;;;;;;;;5096167;28;20180;-69
2023/03/28 02:40:33;;;;;;;11.43;2.10;;;;;;;;;;5115267;28;20032;-69
2023/03/28 02:43:11;;;;;;;11.68;2.13;;;;;;;;;;5114928;28;20042;-69
2023/03/28 02:45:46;;;;;;;5.22;1.50;;;;;;;;;;5115010;28;20039;-68
2023/03/28 02:48:12;;;;;;;10.93;1.60;;;;;;;;;;5114785;28;20039;-67
2023/03/28 02:51:03;;;;;;;15.10;2.50;;;;;;;;;;5114495;28;20032;-68
2023/03/28 02:53:38;;;;;;;9.60;1.98;;;;;;;;;;5087043;28;20050;-68
2023/03/28 02:56:20;;;;;;;11.70;2.33;;;;;;;;;;5133262;27;20043;-68
2023/03/28 02:58:54;;;;;;;;;;;3.30;99.90;;;;;;5115350;28;20122;-68
2023/03/28 03:01:24;;;;;;;6.22;2.10;;;;;;;;;;5114904;28;19922;-68
2023/03/28 03:03:50;;;;;;;8.63;2.30;;;;;;;;;;5111912;28;20039;-68
2023/03/28 03:06:17;;;;;;;21.90;2.53;;;;;;;;;;5114382;28;20556;-69
2023/03/28 03:08:43;;;;;;;8.85;2.13;;;;;;;;;;5114758;28;20035;-68
2023/03/28 03:11:09;;;;;;;9.18;1.90;;;;;;;;;;5097826;28;20088;-68
2023/03/28 03:13:35;;;;;;;8.82;2.40;;;;;;;;;;5114090;28;20039;-68
2023/03/28 03:16:02;;;;;;;11.88;2.40;;;;;;;;;;5114557;28;20483;-68
2023/03/28 03:18:33;;;;;;;13.57;2.60;;;;;;;;;;5080407;28;20135;-68
2023/03/28 03:21:00;;;;;;;11.38;1.98;;;;;;;;;;5114387;28;20066;-69
2023/03/28 03:23:26;;;;;;;10.82;2.60;;;;;;;;;;5114055;28;20091;-68
2023/03/28 03:25:52;;;;;;;10.77;2.67;;;;;;;;;;5114448;28;20097;-68
2023/03/28 03:28:19;;;;;;;8.30;2.22;;;;;;;;;;5114138;28;20122;-68
2023/03/28 03:30:45;;;;;;;16.27;2.88;;;;;;;;;;5113670;28;20123;-68
2023/03/28 03:33:13;;;;;;;9.55;2.20;;;;;;;;;;5114140;28;20074;-67
2023/03/28 03:35:40;;;;;;;7.50;2.13;;;;;;;;;;5095048;28;20036;-68
2023/03/28 03:38:07;;;;;;;11.10;1.90;;;;;;;;;;5113853;28;20479;-67
2023/03/28 03:40:34;;;;;;;10.57;1.83;;;;;;;;;;5114158;28;21531;-68
2023/03/28 03:43:00;;;;;;;10.05;1.95;;;;;;;;;;5114251;28;20043;-68
2023/03/28 03:45:26;;;;;;;9.45;2.22;;;;;;;;;;5113761;28;20063;-68
2023/03/28 03:47:52;;;;;;;7.00;1.98;;;;;;;;;;5096860;28;20031;-68
2023/03/28 03:50:18;;;;;;;13.35;2.60;;;;;;;;;;5113028;28;20042;-68
2023/03/28 03:52:44;;;;;;;13.13;2.40;;;;;;;;;;5096783;28;20027;-68
2023/03/28 03:55:10;;;;;;;10.07;2.55;;;;;;;;;;5113700;28;20067;-68
2023/03/28 03:57:36;;;;;;;11.73;1.95;;;;;;;;;;5080289;28;20087;-70
2023/03/28 04:00:10;;;;;;;7.30;1.90;;;;;;;;;;5113178;28;20439;-68
2023/03/28 04:02:36;;;;;;;13.55;2.50;;;;;;;;;;5096605;28;20035;-68
2023/03/28 04:05:03;;;;;;;10.57;2.10;;;;;;;;;;5096760;28;20062;-68
2023/03/28 04:07:29;;;;;;;11.45;2.00;;;;;;;;;;5113418;28;20088;-68
2023/03/28 04:09:55;;;;;;;13.30;2.10;;;;;;;;;;5113370;28;20547;-68
2023/03/28 04:12:21;;;;;;;10.75;2.00;;;;;;;;;;5110556;28;20118;-68
2023/03/28 04:14:48;;;;;;;6.80;2.00;;;;;;;;;;5113236;28;20472;-68
2023/03/28 04:17:14;;;;;;;8.13;2.03;;;;;;;;;;5113310;28;20044;-69
2023/03/28 04:19:40;;;;;;;8.60;2.30;;;;;;;;;;5113460;28;20067;-69
2023/03/28 04:22:07;;;;;;;15.48;2.45;;;;;;;;;;5106998;28;20051;-68
2023/03/28 04:24:36;;;;;;;8.80;2.08;;;;;;;;;;5113194;28;20554;-73
2023/03/28 04:27:02;;;;;;;8.07;2.08;;;;;;;;;;5112919;28;20039;-72
2023/03/28 04:29:31;;;;;;;18.35;2.80;;;;;;;;;;5112766;28;20031;-73
2023/03/28 04:31:58;;;;;;;12.13;1.98;;;;;;;;;;5113083;28;20043;-73
2023/03/28 04:34:28;;;;;;;9.95;2.00;;;;;;;;;;5113029;28;20035;-68
2023/03/28 04:36:55;;;;;;;7.82;1.80;;;;;;;;;;5112686;28;20046;-69
2023/03/28 04:39:21;;;;;;;8.38;1.65;;;;;;;;;;5112809;28;20445;-70
2023/03/28 04:41:47;;;;;;;13.82;2.97;;;;;;;;;;5112568;28;20123;-68
2023/03/28 04:44:14;;;;;;;11.88;2.10;;;;;;;;;;5112744;28;20048;-68
2023/03/28 04:46:40;;;;;;;13.63;2.28;;;;;;;;;;5112499;28;20118;-68
2023/03/28 04:49:06;;;;;;;8.90;2.28;;;;;;;;;;5112560;28;20044;-68
2023/03/28 04:51:32;;;;;;;13.40;2.58;;;;;;;;;;5112610;28;20161;-68
2023/03/28 04:53:58;;;;;;;6.95;2.60;;;;;;;;;;5095494;28;20047;-69
2023/03/28 04:56:24;;;;;;;9.80;2.13;;;;;;;;;;5112362;28;20036;-68
2023/03/28 04:58:50;;;;;;;10.43;2.28;;;;;;;;;;5112709;28;20040;-68
2023/03/28 05:01:16;;;;;;;12.18;2.55;;;;;;;;;;5112325;28;20036;-70
2023/03/28 05:03:42;;;;;;;10.82;1.90;;;;;;;;;;5112344;28;20070;-68
2023/03/28 05:06:09;;;;;;;10.43;2.05;;;;;;;;;;5112286;28;20040;-69
2023/03/28 05:08:35;;;;;;;9.80;1.70;;;;;;;;;;5095476;28;20032;-68
2023/03/28 05:11:01;;;;;;;6.50;2.15;;;;;;;;;;5112305;28;20043;-68
2023/03/28 05:13:27;;;;;;;10.02;2.03;;;;;;;;;;5109357;28;20035;-68
2023/03/28 05:15:54;;;;;;;7.47;1.85;;;;;;;;;;5095091;28;20071;-68
2023/03/28 05:18:20;;;;;;;8.68;2.22;;;;;;;;;;5112270;28;20035;-68
2023/03/28 05:20:46;;;;;;;8.70;2.28;;;;;;;;;;5111898;28;20036;-68
2023/03/28 05:23:12;;;;;;;11.52;2.30;;;;;;;;;;5081854;28;20055;-68
2023/03/28 05:25:38;;;;;;;7.28;1.90;;;;;;;;;;5074494;28;20055;-68
2023/03/28 05:28:05;;;;;;;7.30;1.95;;;;;;;;;;5074549;28;20036;-68
2023/03/28 05:30:31;;;;;;;4.63;2.10;;;;;;;;;;5091580;28;20035;-68
2023/03/28 05:32:58;;;;;;;8.13;2.10;;;;;;;;;;5091300;28;20496;-68
2023/03/28 05:35:24;;;;;;;12.60;3.17;;;;;;;;;;5088758;28;20032;-68
2023/03/28 05:37:50;;;;;;;6.95;1.92;;;;;;;;;;5091266;28;20066;-68
2023/03/28 05:40:16;;;;;;;8.77;2.15;;;;;;;;;;5091419;28;20035;-68
2023/03/28 05:42:42;;;;;;;7.95;2.15;;;;;;;;;;5107876;28;20028;-72
2023/03/28 05:45:11;;;;;;;8.65;2.22;;;;;;;;;;5091384;28;20058;-72
2023/03/28 05:47:37;;;;;;;13.55;2.65;;;;;;;;;;5091508;28;20097;-72
2023/03/28 05:50:04;;;;;;;6.93;2.20;;;;;;;;;;5091249;28;20129;-73
2023/03/28 05:52:30;;;;;;;11.68;1.90;;;;;;;;;;5092659;28;20074;-74
2023/03/28 05:54:56;;;;;;;8.70;2.00;;;;;;;;;;5074459;28;20450;-73
2023/03/28 05:57:22;;;;;;;21.95;2.90;;;;;;;;;;5091335;28;20139;-72
2023/03/28 05:59:48;;;;;;;8.57;1.88;;;;;;;;;;5108502;28;20052;-72
2023/03/28 06:02:16;;;;;;;7.95;1.77;;;;;;;;;;5091153;28;20072;-73
2023/03/28 06:04:43;;;;;;;9.50;2.50;;;;;;;;;;5074029;28;20104;-73
2023/03/28 06:07:10;;;;;;;7.05;1.80;;;;;;;;;;5089897;28;20093;-72
2023/03/28 06:09:37;;;;;;;9.02;1.98;;;;;;;;;;5091100;28;20062;-72
2023/03/28 06:12:04;;;;;;;5.35;2.00;;;;;;;;;;5093110;28;20089;-68
2023/03/28 06:14:30;;;;;;;9.88;2.35;;;;;;;;;;5081052;28;20434;-68
2023/03/28 06:16:57;;;;;;;12.10;2.67;;;;;;;;;;5080710;28;20043;-68
2023/03/28 06:19:23;;;;;;;8.60;2.50;;;;;;;;;;5080847;28;20040;-68
2023/03/28 06:21:50;;;;;;;7.90;1.75;;;;;;;;;;5099716;27;20079;-69
2023/03/28 06:24:16;;;;;;;7.50;1.92;;;;;;;;;;5137990;27;20074;-68
2023/03/28 06:26:42;;;;;;;10.18;1.80;;;;;;;;;;5121281;27;20039;-68
2023/03/28 06:29:08;;;;;;;10.32;2.15;;;;;;;;;;5125063;27;20454;-68
2023/03/28 06:31:34;;;;;;;8.80;2.60;;;;;;;;;;5146047;27;20047;-69
2023/03/28 06:34:01;;;;;;;7.25;1.80;;;;;;;;;;5122714;27;20043;-69
2023/03/28 06:36:27;;;;;;;15.52;2.38;;;;;;;;;;5104568;27;20121;-69
2023/03/28 06:38:53;;;;;;;15.75;2.90;;;;;;;;;;5139750;27;20055;-69
2023/03/28 06:41:19;;;;;;;10.77;2.13;;;;;;;;;;5122248;27;20035;-69
2023/03/28 06:43:46;;;;;;;9.98;2.30;;;;;;;;;;5121643;27;20042;-68
2023/03/28 06:46:14;;;;;;;7.28;2.38;;;;;;;;;;5120027;27;20440;-69
2023/03/28 06:48:41;;;;;;;4.68;2.08;;;;;;;;;;5119496;27;20050;-69
2023/03/28 06:51:07;;;;;;;10.05;2.28;;;;;;;;;;5120235;27;20042;-69
2023/03/28 06:53:34;;;;;;;8.07;2.28;;;;;;;;;;5120956;27;20043;-69
2023/03/28 06:56:01;;;;;;;12.73;2.80;;;;;;;;;;5118972;27;20058;-69
2023/03/28 06:58:27;;;;;;;7.88;1.60;;;;;;;;;;5120164;27;20122;-69
2023/03/28 07:00:53;;;;;;;4.75;1.52;;;;;;;;;;5131360;27;20506;-69
2023/03/28 07:03:19;;;;;;;8.50;2.15;;;;;;;;;;5120596;27;20048;-69
2023/03/28 07:05:46;;;;;;;8.13;1.80;;;;;;;;;;5120799;27;20045;-68
2023/03/28 07:08:13;;;;;;;7.78;1.90;;;;;;;;;;5120586;27;20100;-69
2023/03/28 07:10:39;;;;;;;8.40;2.05;;;;;;;;;;5120924;27;20039;-69
2023/03/28 07:13:06;;;;;;;9.88;1.73;;;;;;;;;;5120860;27;20046;-69
2023/03/28 07:15:33;;;;;;;6.32;1.83;;;;;;;;;;5126354;27;20475;-69
2023/03/28 07:18:00;;;;;;;4.47;1.77;;;;;;;;;;5103662;27;20047;-69
2023/03/28 07:20:26;;;;;;;7.05;1.80;;;;;;;;;;5127173;27;20035;-69
2023/03/28 07:22:52;;;;;;;10.30;1.65;;;;;;;;;;5120032;27;20047;-70
2023/03/28 07:25:19;;;;;;;6.88;1.90;;;;;;;;;;5116619;27;20051;-69
2023/03/28 07:27:45;;;;;;;6.57;1.60;;;;;;;;;;5128420;27;20081;-69
2023/03/28 07:30:12;;;;;;;10.73;2.15;;;;;;;;;;5117031;27;20403;-69
2023/03/28 07:32:38;;;;;;;8.13;1.73;;;;;;;;;;5117307;27;20462;-70
2023/03/28 07:35:05;;;;;;;7.80;1.90;;;;;;;;;;5118137;27;20062;-70
2023/03/28 07:37:31;;;;;;;9.70;2.60;;;;;;;;;;5118253;27;20513;-69
2023/03/28 07:39:57;;;;;;;5.22;1.83;;;;;;;;;;5118398;27;20050;-70
2023/03/28 07:42:23;;;;;;;3.83;1.92;;;;;;;;;;5118924;27;20475;-69
2023/03/28 07:44:49;;;;;;;7.38;1.55;;;;;;;;;;5123574;27;20039;-70
2023/03/28 07:47:17;;;;;;;5.15;2.03;;;;;;;;;;5117835;27;20039;-69
2023/03/28 07:49:44;;;;;;;4.85;1.75;;;;;;;;;;5118035;27;20505;-70
2023/03/28 07:52:10;;;;;;;5.15;1.50;;;;;;;;;;5126084;27;20424;-69
2023/03/28 07:54:36;;;;;;;4.32;1.55;;;;;;;;;;5126319;27;20050;-69
2023/03/28 07:57:03;;;;;;;7.90;1.70;;;;;;;;;;5116018;27;20039;-70
2023/03/28 07:59:29;;;;;;;6.70;1.50;;;;;;;;;;5100214;27;20050;-70
2023/03/28 08:01:55;;;;;;;2.70;1.30;;;;;;;;;;5116939;27;20042;-70
2023/03/28 08:04:21;;;;;;;3.67;1.50;;;;;;;;;;5079922;28;20122;-70
2023/03/28 08:06:47;;;;;;;4.50;1.42;;;;;;;;;;5097461;28;20043;-70
2023/03/28 08:09:15;;;;;;;7.55;1.52;;;;;;;;;;5097486;28;20104;-70
2023/03/28 08:11:42;;;;;;;6.10;1.73;;;;;;;;;;5097716;28;20130;-70
2023/03/28 08:14:12;;;;;;;3.40;1.13;;;;;;;;;;5080357;28;20058;-70
2023/03/28 08:16:39;;;;;;;6.82;1.50;;;;;;;;;;5097243;28;20043;-70
2023/03/28 08:19:05;;;;;;;5.28;1.95;;;;;;;;;;5097160;28;20039;-70
2023/03/28 08:21:31;;;;;;;4.55;1.30;;;;;;;;;;5096992;28;20035;-70
2023/03/28 08:23:58;;;;;;;6.65;1.23;;;;;;;;;;5080060;28;20055;-70
2023/03/28 08:26:25;;;;;;;6.68;1.02;;;;;;;;;;5097178;28;20063;-70
2023/03/28 08:28:53;;;;;;;2.65;1.17;;;;;;;;;;5097152;28;20048;-70
2023/03/28 08:31:22;;;;;;;5.13;1.50;;;;;;;;;;5097541;28;20035;-70
2023/03/28 08:33:52;;;;;;;5.32;1.30;;;;;;;;;;5097141;28;20392;-70
2023/03/28 08:36:18;;;;;;;6.20;1.40;;;;;;;;;;5096526;28;20082;-70
2023/03/28 08:38:45;;;;;;;8.88;1.60;;;;;;;;;;5097034;28;20158;-70
2023/03/28 08:41:30;;;;;;;3.50;1.20;;;;;;;;;;5096992;28;20422;-70
2023/03/28 08:44:08;;;;;;;4.15;1.77;;;;;;;;;;5096952;28;20047;-70
2023/03/28 08:46:35;;;;;;;2.70;1.25;;;;;;;;;;5101663;28;20043;-77
2023/03/28 08:49:04;;;;;;;10.82;1.67;;;;;;;;;;5099553;28;20036;-74
2023/03/28 08:51:42;;;;;;;3.75;1.02;;;;;;;;;;5096441;28;20073;-72
2023/03/28 08:54:21;;;;;;;5.40;1.05;;;;;;;;;;5096322;28;20036;-77
2023/03/28 08:56:50;;;;;;;3.85;1.30;;;;;;;;;;5096740;28;20514;-76
2023/03/28 08:59:18;;;;;;;6.80;1.27;;;;;;;;;;5097117;28;20039;-71
2023/03/28 09:01:45;;;;;;;4.10;1.60;;;;;;;;;;5097144;28;20047;-71
2023/03/28 09:04:35;;;;;;;9.32;3.08;;;;;;;;;;5096175;28;20047;-71
2023/03/28 09:07:16;;;;;;;5.25;1.50;;;;;;;;;;5117488;27;20134;-71
2023/03/28 09:09:42;;;;;;;7.43;1.50;;;;;;;;;;5096762;28;20031;-73
2023/03/28 09:12:27;;;;;;;8.35;1.50;;;;;;;;;;5096632;28;20039;-71
2023/03/28 09:15:17;;;;;;;6.18;1.80;;;6.90;99.90;;;;;;5096230;28;20039;-71
2023/03/28 09:17:44;;;;;;;9.00;1.85;;;;;;;;;;5079322;28;20039;-70
2023/03/28 09:20:22;;;;;;;11.90;3.03;;;;;;;;;;5096190;28;20057;-71
2023/03/28 09:23:00;;;;;;;3.28;1.58;;;;;;;;;;5084991;28;20102;-71
2023/03/28 09:25:51;;;;;;;5.85;1.75;;;;;;;;;;5072632;28;20135;-71
2023/03/28 09:28:29;;;;;;;4.80;1.90;;;;;;;;;;5072277;28;20033;-71
2023/03/28 09:30:57;;;;;;;6.60;1.65;;;;;;;;;;5072465;28;20085;-71
2023/03/28 09:33:37;;;;;;;8.60;2.05;;;;;;;;;;5072174;28;20045;-71
2023/03/28 09:36:10;;;;;;;4.85;1.70;;;;;;;;;;5071528;28;20178;-72
2023/03/28 09:38:38;;;;;;;3.55;1.55;;;;;;;;;;5071627;28;20492;-71
2023/03/28 09:41:06;;;;;;;7.25;2.10;;;;;;;;;;5070586;28;20071;-71
2023/03/28 09:43:50;;;;;;;6.32;2.30;;;;;;;;;;5055728;28;20106;-71
2023/03/28 09:46:34;;;;;;;3.10;1.80;;;7.40;99.90;;;;;;5071725;28;20201;-72
2023/03/28 09:49:00;;;;;;;4.68;2.47;;;;;;;;;;5055014;28;20041;-72
2023/03/28 09:51:26;;;;;;;5.72;2.58;;;;;;;;;;5072076;28;20090;-73
2023/03/28 09:53:52;;;;;;;6.05;1.83;;;;;;;;;;5071996;28;20043;-73
2023/03/28 09:56:36;;;;;;;8.55;2.00;;;;;;;;;;5055685;28;20049;-72
2023/03/28 09:59:04;;;;;;;6.38;2.47;;;;;;;;;;5055454;28;20040;-77
2023/03/28 10:01:43;;;;;;;7.05;2.40;;;;;;;;;;5072246;28;20075;-77
2023/03/28 10:04:10;;;;;;;4.93;1.95;;;;;;;;;;5071956;28;20489;-77
2023/03/28 10:06:39;;;;;;;6.47;2.22;;;;;;;;;;5071898;28;20044;-77
2023/03/28 10:09:09;;;;;;;6.32;2.33;;;;;;;;;;5054379;28;20097;-77
2023/03/28 10:11:55;;;;;;;5.55;2.00;;;;;;;;;;5069861;28;20508;-77
2023/03/28 10:14:28;;;;;;;4.90;2.20;;;;;;;;;;5054470;28;20029;-77
2023/03/28 10:16:55;;;;;;;4.40;2.03;;;;;;;;;;5071156;28;20040;-77
2023/03/28 10:19:23;;;;;;;9.02;2.40;;;;;;;;;;5054071;28;20084;-73
2023/03/28 10:21:49;;;;;;;8.70;2.97;;;;;;;;;;5071226;28;20404;-73
2023/03/28 10:24:17;;;;;;;6.18;2.40;;;;;;;;;;5071553;28;20071;-73
2023/03/28 10:26:43;;;;;;;4.78;2.83;;;;;;;;;;5071627;28;20167;-73
2023/03/28 10:29:12;;;;;;;5.03;2.50;;;;;;;;;;5055004;28;20369;-76
2023/03/28 10:31:40;;;;;;;6.93;2.65;;;;;;;;;;5071436;28;20111;-79
2023/03/28 10:34:22;;;;;;;9.95;2.85;;;;;;;;;;5071702;28;20485;-78
2023/03/28 10:36:48;;;;;;;4.93;2.60;;;;;;;;;;5071740;28;20469;-78
2023/03/28 10:39:20;;;;;;;4.78;2.35;;;;;;;;;;5038223;28;20040;-76
2023/03/28 10:41:54;;;;;;;6.13;2.67;;;;;;;;;;5071954;28;20546;-75
2023/03/28 10:44:30;;;;;;;5.55;2.25;;;;;;;;;;5071510;28;20045;-79
2023/03/28 10:46:59;;;;;;;6.35;2.78;;;;;;;;;;5071845;28;20045;-76
2023/03/28 10:49:25;;;;;;;6.68;2.97;;;;;;;;;;5071808;28;20101;-76
2023/03/28 10:51:51;;;;;;;6.70;2.28;;;;;;;;;;5071496;28;20041;-76
2023/03/28 10:54:32;;;;;;;7.10;2.75;;;;;;;;;;5071624;28;20036;-74
2023/03/28 10:57:04;;;;;;;6.90;2.80;;;;;;;;;;5071668;28;20429;-73
2023/03/28 10:59:53;;;;;;;8.38;2.90;;;;;;;;;;5074652;28;20048;-73
2023/03/28 11:02:19;;;;;;;5.15;2.53;;;;;;;;;;5075052;28;20040;-72
2023/03/28 11:04:51;;;;;;;7.53;2.67;;;;;;;;;;5075077;28;20051;-73
2023/03/28 11:07:21;;;;;;;9.50;3.15;;;;;;;;;;5058320;28;20055;-74
2023/03/28 11:09:58;;;;;;;7.82;2.70;;;;;;;;;;5075368;28;20427;-74
2023/03/28 11:12:32;;;;;;;6.60;3.00;;;;;;;;;;5074896;28;20488;-74
2023/03/28 11:15:06;;;;;;;6.80;3.05;;;;;;;;;;5075109;28;20086;-74
2023/03/28 11:17:35;;;;;;;7.97;2.63;;;;;;;;;;5074803;28;20123;-74
2023/03/28 11:20:04;;;;;;;7.63;2.70;;;;;;;;;;5074684;28;20043;-74
2023/03/28 11:23:00;;;;;;;6.88;2.78;;;;;;;;;;5080230;28;20408;-73
2023/03/28 11:25:45;;;;;;;8.80;3.28;;;;;;;;;;5043599;28;20112;-74
2023/03/28 11:28:30;;;;;;;7.80;2.70;;;;;;;;;;5081533;28;20039;-73
2023/03/28 11:30:58;;;;;;;9.30;3.10;;;;;;;;;;5098215;28;20109;-74
2023/03/28 11:33:43;;;;;;;7.43;2.88;;;;;;;;;;5098116;28;20601;-74
2023/03/28 11:36:15;;;;;;;8.25;3.53;;;;;;;;;;5098048;28;20518;-73
2023/03/28 11:39:04;;;;;;;10.85;2.88;;;;;;;;;;5098244;28;20169;-73
2023/03/28 11:41:32;;;;;;;7.25;3.15;;;;;;;;;;5115165;28;20051;-73
2023/03/28 11:44:17;;;;;;;6.07;2.83;;;;;;;;;;5098017;28;20051;-73
2023/03/28 11:46:48;;;;;;;6.63;2.60;;;;;;;;;;5092228;27;20076;-74
2023/03/28 11:49:35;;;;;;;7.13;2.88;;;;;;;;;;5118666;27;20050;-73
2023/03/28 11:52:05;;;;;;;5.00;2.67;;;;;;;;;;5100970;27;20048;-73
2023/03/28 11:54:41;;;;;;;5.95;3.00;;;;;;;;;;5118368;27;20035;-73
2023/03/28 11:57:07;;;;;;;8.15;2.88;;;;;;;;;;5118166;27;20118;-74
2023/03/28 11:59:51;;;;;;;6.20;2.88;;;;;;;;;;5118253;27;20096;-74
2023/03/28 12:02:23;;;;;;;5.05;2.80;;;;;;;;;;5117443;27;20039;-74
2023/03/28 12:04:53;;;;;;;8.20;2.88;;;;;;;;;;5115308;27;20039;-74
2023/03/28 12:07:21;;;;;;;8.32;3.00;;;;;;;;;;5117326;27;21406;-74
2023/03/28 12:09:48;;;;;;;8.65;3.05;;;;;;;;;;5114297;27;20042;-74
2023/03/28 12:12:35;;;;;;;6.38;2.80;;;;;;;;;;5100660;27;20035;-73
2023/03/28 12:15:04;;;;;;;13.13;3.40;;;;;;;;;;5116376;27;20510;-74
2023/03/28 12:17:34;;;;;;;8.07;3.00;;;;;;;;;;5114714;27;20517;-73
2023/03/28 12:20:00;;;;;;;5.45;3.65;;;;;;;;;;5131262;27;20495;-73
2023/03/28 12:22:49;;;;;;;9.00;3.17;;;;;;;;;;5099958;27;20046;-73
2023/03/28 12:25:28;;;;;;;11.18;3.22;;;;;;;;;;5142736;27;20483;-73
2023/03/28 12:27:57;;;;;;;6.07;2.70;;;;;;;;;;5114325;27;20039;-74
2023/03/28 12:30:32;;;;;;;9.07;2.85;;;;;;;;;;5100175;27;20031;-73
2023/03/28 12:33:00;;;;;;;9.32;3.03;;;;;;;;;;5100344;27;20530;-71
2023/03/28 12:35:35;;;;;;;9.25;2.95;;;;;;;;;;5117173;27;20043;-73
2023/03/28 12:38:08;;;;;;;5.93;2.83;;;;;;;;;;5117474;27;20051;-73
2023/03/28 12:40:40;;;;;;;8.60;3.33;;;;;;;;;;5100507;27;20383;-73
2023/03/28 12:43:07;;;;;;;7.78;2.80;;;;;;;;;;5117259;27;20035;-73
2023/03/28 12:45:38;;;;;;;7.13;2.47;;;;;;;;;;5116886;27;20130;-73
2023/03/28 12:48:06;;;;;;;6.80;2.80;;;;;;;;;;5116706;27;20035;-73
2023/03/28 12:50:36;;;;;;;4.53;2.60;;;;;;;;;;5100237;27;20103;-73
2023/03/28 12:53:02;;;;;;;6.65;2.92;;;;;;;;;;5100096;27;20059;-73
2023/03/28 12:55:30;;;;;;;6.60;3.03;;;;;;;;;;5116773;27;20043;-73
2023/03/28 12:58:17;;;;;;;5.75;2.65;;;;;;;;;;5116990;27;20478;-73
2023/03/28 13:00:48;;;;;;;8.43;3.25;;;;;;;;;;5116688;27;20042;-73
2023/03/28 13:03:15;;;;;;;13.67;3.30;;;;;;;;;;5117293;27;20041;-71
2023/03/28 13:05:47;;;;;;;13.38;3.85;;;;;;;;;;5116189;27;20043;-72
2023/03/28 13:08:24;;;;;;;11.23;3.60;;;;;;;;;;5116513;27;20043;-72
2023/03/28 13:11:03;;;;;;;10.23;4.30;;;;;;;;;;5116491;27;20027;-73
2023/03/28 13:13:44;;;;;;;8.68;4.25;;;;;;;;;;5115851;27;20039;-72
2023/03/28 13:16:13;;;;;;;7.15;3.42;;;;;;;;;;5115834;27;20066;-72
2023/03/28 13:18:47;;;;;;;7.43;3.50;;;;;;;;;;5115708;27;20035;-72
2023/03/28 13:21:33;;;;;;;10.82;3.35;;;;;;;;;;5123729;27;20417;-72
2023/03/28 13:23:59;;;;;;;9.55;3.50;;;;;;;;;;5112913;27;20100;-72
2023/03/28 13:26:26;;;;;;;7.47;3.17;;;;;;;;;;5115606;27;20475;-72
2023/03/28 13:28:58;;;;;;;5.75;3.30;;;;;;;;;;5098281;27;20035;-72
2023/03/28 13:31:25;;;;;;;11.20;3.60;;;;;;;;;;5115282;27;20071;-72
2023/03/28 13:33:53;;;;;;;14.90;3.67;;;;;;;;;;5115397;27;20491;-72
2023/03/28 13:36:19;;;;;;;6.70;3.10;;;;;;;;;;5115374;27;20403;-73
2023/03/28 13:38:45;;;;;;;9.07;3.42;;;;;;;;;;5115265;27;20399;-72
2023/03/28 13:41:28;;;;;;;10.60;3.25;;;;;;;;;;5115467;27;20056;-72
2023/03/28 13:43:56;;;;;;;14.70;4.47;;;;;;;;;;5113157;27;20482;-72
2023/03/28 13:46:31;;;;;;;6.78;3.05;;;;;;;;;;5123533;27;20099;-73
2023/03/28 13:49:09;;;;;;;13.73;3.63;;;;;;;;;;5115120;27;20122;-72
2023/03/28 13:51:47;;;;;;;7.40;3.30;;;;;;;;;;5097169;27;20028;-73
2023/03/28 13:54:14;;;;;;;10.57;3.38;;;;;;;;;;5113835;27;20524;-73
2023/03/28 13:56:43;;;;;;;8.35;3.92;;;;;;;;;;5097793;28;20088;-72
2023/03/28 13:59:29;;;;;;;8.23;3.60;;;;;;;;;;5098080;27;20042;-73
2023/03/28 14:01:57;;;;;;;7.25;4.10;;;;;;;;;;5100162;27;20056;-73
2023/03/28 14:04:25;;;;;;;12.38;4.20;;;;;;;;;;5114846;28;20042;-72
2023/03/28 14:06:52;;;;;;;10.68;4.40;;;;;;;;;;5123765;27;20039;-73
2023/03/28 14:09:27;;;;;;;8.25;4.40;;;;;;;;;;5098248;27;20027;-72
2023/03/28 14:11:54;;;;;;;11.32;3.90;;;;;;;;;;5115085;28;20395;-73
2023/03/28 14:14:23;;;;;;;8.43;4.22;;;;;;;;;;5115236;28;20061;-73
2023/03/28 14:16:50;;;;;;;7.00;3.88;;;;;;;;;;5115171;27;20035;-73
2023/03/28 14:19:18;;;;;;;12.98;4.65;;;;;;;;;;5115134;28;20121;-74
2023/03/28 14:21:45;;;;;;;12.48;3.40;;;;;;;;;;5114719;28;20039;-73
2023/03/28 14:24:15;;;;;;;6.88;3.72;;;;;;;;;;5114908;28;20095;-73
2023/03/28 14:26:41;;;;;;;8.73;3.50;;;;;;;;;;5115021;28;20456;-74
2023/03/28 14:29:11;;;;;;;6.88;3.47;;;;;;;;;;5114896;28;20047;-74
2023/03/28 14:31:40;;;;;;;11.35;3.65;;;;;;;;;;5114919;28;20032;-73
2023/03/28 14:34:15;;;;;;;9.90;3.78;;;;;;;;;;5114992;27;20042;-74
2023/03/28 14:36:57;;;;;;;6.88;3.63;;;;;;;;;;5119107;27;20038;-74
2023/03/28 14:39:24;;;;;;;6.17;2.97;;;;;;;;;;5117030;27;20043;-73
2023/03/28 14:41:50;;;;;;;11.38;4.00;;;;;;;;;;5099318;27;20058;-74
2023/03/28 14:44:16;;;;;;;10.45;3.80;;;;;;;;;;5102117;27;20043;-74
2023/03/28 14:46:42;;;;;;;11.05;3.95;;;;;;;;;;5084241;27;20035;-74
2023/03/28 14:49:17;;;;;;;11.52;3.83;;;;;;;;;;5119069;27;20109;-74
2023/03/28 14:51:45;;;;;;;9.00;3.58;;;;;;;;;;5118884;27;20043;-74
2023/03/28 14:54:13;;;;;;;7.05;3.20;;;;;;;;;;5101489;27;20065;-74
2023/03/28 14:56:40;;;;;;;8.20;3.10;;;;;;;;;;5118657;27;20379;-74